Time;durP1;ratioP1;P1;durP2;ratioP2;P2;SDS_P1;SDS_P2;PMS_P1;PMS_P2;Temp;Humidity;BMP_temperature;BMP_pressure;BME280_temperature;BME280_humidity;BME280_pressure;Samples;Min_cycle;Max_cycle;Signal;HPM_P1;HPM_P2
2022/07/04 00:02:00;;;;;;;8.73;3.35;;;;;;;27.55;33.43;98653.09;4487917;32;20114;-85
2022/07/04 00:04:26;;;;;;;7.87;3.30;;;;;;;27.64;33.26;98652.75;4487816;32;20172;-85
2022/07/04 00:06:51;;;;;;;8.02;3.30;;;;;;;27.52;33.59;98654.31;4487793;32;20491;-85
2022/07/04 00:09:17;;;;;;;9.60;3.87;;;;;;;27.56;33.58;98654.75;4487704;32;20137;-85
2022/07/04 00:11:42;;;;;;;10.73;3.85;;;;;;;27.38;34.06;98652.53;4487821;32;20457;-85
2022/07/04 00:14:08;;;;;;;8.07;3.75;;;;;;;27.44;34.10;98638.22;4487790;32;20352;-85
2022/07/04 00:16:34;;;;;;;8.68;3.60;;;;;;;27.48;34.11;98652.19;4473358;32;20130;-84
2022/07/04 00:19:00;;;;;;;7.47;3.20;;;;;;;27.45;34.26;98650.72;4487711;32;20092;-84
2022/07/04 00:21:25;;;;;;;8.55;3.90;;;;;;;27.39;34.47;98646.94;4473430;32;20115;-84
2022/07/04 00:23:51;;;;;;;8.43;3.62;;;;;;;27.40;34.54;98645.06;4487699;32;20090;-84
2022/07/04 00:26:16;;;;;;;7.47;3.20;;;;;;;27.32;34.79;98647.91;4487725;32;20119;-85
2022/07/04 00:28:42;;;;;;;8.20;3.30;;;;;;;27.34;34.80;98648.56;4487650;32;20104;-84
2022/07/04 00:31:08;;;;;;;8.85;4.22;;;;;;;27.31;35.03;98643.53;4487585;32;20108;-85
2022/07/04 00:33:33;;;;;;;11.05;4.97;;;;;;;26.76;36.21;98648.59;4487567;32;20060;-85
2022/07/04 00:35:58;;;;;;;9.70;3.67;;;;;;;27.03;35.78;98644.28;4487640;32;20112;-85
2022/07/04 00:38:24;;;;;;;9.57;3.70;;;;;;;26.99;35.87;98651.13;4487596;32;20401;-84
2022/07/04 00:40:50;;;;;;;8.65;3.28;;;;;;;27.01;35.78;98639.06;4487585;32;20156;-85
2022/07/04 00:43:26;;;;;;;8.02;3.67;;;;;;;27.03;35.84;98649.69;4487599;32;20424;-85
2022/07/04 00:45:51;;;;;;;9.30;3.60;;;;;;;26.99;35.99;98637.59;4473230;32;20134;-85
2022/07/04 00:48:18;;;;;;;9.75;4.70;;;;;;;26.97;36.01;98642.38;4487367;32;20436;-85
2022/07/04 00:50:45;;;;;;;9.97;4.37;;;;;;;26.98;36.09;98642.16;4487279;32;20096;-86
2022/07/04 00:53:10;;;;;;;11.00;4.82;;;;;;;26.90;36.25;98638.75;4473332;32;20136;-86
2022/07/04 00:55:36;;;;;;;11.85;4.80;;;;;;;26.91;36.29;98640.41;4487409;32;20181;-85
2022/07/04 00:58:01;;;;;;;9.20;4.25;;;;;;;26.84;36.54;98643.87;4486360;32;20104;-85
2022/07/04 01:00:27;;;;;;;10.68;4.93;;;;;;;26.80;36.66;98641.75;4487552;32;20488;-85
2022/07/04 01:02:52;;;;;;;11.45;5.22;;;;;;;26.83;36.66;98646.78;4487421;32;20092;-85
2022/07/04 01:05:19;;;;;;;9.35;4.60;;;;;;;26.85;36.68;98648.28;4487478;32;20100;-85
2022/07/04 01:07:46;;;;;;;10.48;4.57;;;;;;;26.74;36.87;98647.94;4487452;32;20167;-85
2022/07/04 01:10:11;;;;;;;10.50;4.53;;;;;;;26.56;37.09;98651.00;4487316;32;20115;-85
2022/07/04 01:12:38;;;;;;;8.93;3.87;;;;;;;26.38;37.43;98656.84;4473097;32;20088;-85
2022/07/04 01:15:05;;;;;;;9.68;4.18;;;;;;;26.33;37.47;98653.84;4473032;32;20168;-85
2022/07/04 01:17:31;;;;;;;10.45;4.40;;;;;;;26.38;37.43;98660.34;4487464;32;20112;-86
2022/07/04 01:19:57;;;;;;;10.57;4.53;;;;;;;26.29;37.69;98658.81;4487295;32;20865;-86
2022/07/04 01:22:22;;;;;;;10.05;4.07;;;;;;;26.35;37.61;98663.47;4487287;32;20112;-86
2022/07/04 01:24:48;;;;;;;10.95;4.65;;;;;;;26.27;37.87;98663.56;4487256;32;20443;-85
2022/07/04 01:27:14;;;;;;;10.43;4.70;;;;;;;26.29;37.85;98665.03;4472959;32;20222;-85
2022/07/04 01:29:40;;;;;;;10.40;4.72;;;;;;;26.16;38.17;98664.03;4487280;32;20118;-84
2022/07/04 01:32:07;;;;;;;9.30;4.50;;;;;;;26.17;38.26;98663.81;4472943;32;20093;-84
2022/07/04 01:34:33;;;;;;;10.07;4.57;;;;;;;26.27;38.06;98652.75;4487236;32;20451;-84
2022/07/04 01:36:59;;;;;;;11.75;5.75;;;;;;;26.29;37.98;98656.94;4473063;32;20104;-84
2022/07/04 01:39:25;;;;;;;9.75;4.70;;;;;;;26.24;38.16;98656.66;4487102;32;20159;-85
2022/07/04 01:41:51;;;;;;;10.93;4.95;;;;;;;26.18;38.28;98653.88;4487270;32;20424;-86
2022/07/04 01:44:16;;;;;;;9.30;4.40;;;;;;;26.28;38.11;98662.53;4487130;32;20177;-84
2022/07/04 01:46:42;;;;;;;11.25;5.28;;;;;;;26.27;38.12;98667.09;4487153;32;20122;-85
2022/07/04 01:49:08;;;;;;;10.27;4.72;;;;;;;26.15;38.30;98660.47;4472914;32;20415;-86
2022/07/04 01:51:34;;;;;;;11.50;4.90;;;;;;;26.01;38.56;98662.16;4487231;32;20144;-85
2022/07/04 01:53:59;;;;;;;9.48;4.45;;;;;;;25.88;38.86;98670.88;4487401;32;20100;-84
2022/07/04 01:56:25;;;;;;;9.98;4.32;;;;;;;25.87;38.95;98662.97;4487353;32;20387;-85
2022/07/04 01:58:50;;;;;;;10.25;5.00;;;;;;;25.55;39.58;98672.22;4486603;32;20091;-85
2022/07/04 02:01:31;;;;;;;10.77;4.50;;;;;;;25.85;39.06;98667.72;4487007;32;20128;-85
2022/07/04 02:04:01;;;;;;;9.38;4.47;;;;;;;25.68;39.42;98670.56;4487264;32;20124;-85
2022/07/04 02:06:27;;;;;;;10.93;4.45;;;;;;;25.80;39.17;98670.13;4487076;32;20192;-84
2022/07/04 02:14:21;;;;;;;9.45;4.70;;;;;;;25.62;39.56;98679.41;4487090;32;20127;-85
2022/07/04 02:16:47;;;;;;;9.98;4.65;;;;;;;25.71;39.38;98680.19;4472587;32;20467;-85
2022/07/04 02:19:12;;;;;;;10.32;4.72;;;;;;;25.54;39.70;98687.56;4486790;32;20109;-85
2022/07/04 02:21:37;;;;;;;10.02;4.72;;;;;;;25.73;39.47;98677.28;4486878;32;20088;-85
2022/07/04 02:24:03;;;;;;;11.07;4.72;;;;;;;25.59;39.60;98678.91;4486765;32;20379;-85
2022/07/04 02:26:29;;;;;;;10.50;4.22;;;;;;;25.66;39.42;98667.22;4472368;32;20152;-85
2022/07/04 02:28:54;;;;;;;9.48;4.10;;;;;;;25.74;39.35;98669.00;4486688;32;20113;-85
2022/07/04 02:31:19;;;;;;;9.23;4.37;;;;;;;25.81;39.14;98672.63;4486698;32;20085;-85
2022/07/04 02:33:45;;;;;;;9.68;4.30;;;;;;;25.84;39.07;98669.56;4486681;32;20499;-84
2022/07/04 02:36:10;;;;;;;10.73;4.55;;;;;;;25.85;39.03;98663.16;4486690;32;20088;-84
2022/07/04 02:38:36;;;;;;;9.55;4.50;;;;;;;25.75;39.19;98668.00;4486697;32;20136;-85
2022/07/04 02:41:01;;;;;;;10.30;4.45;;;;;;;25.51;39.73;98671.75;4486635;32;20092;-85
2022/07/04 02:43:26;;;;;;;9.45;4.32;;;;;;;25.53;39.60;98677.78;4472286;32;20101;-85
2022/07/04 02:45:52;;;;;;;9.90;4.57;;;;;;;25.70;39.29;98675.78;4486519;32;20122;-85
2022/07/04 02:48:17;;;;;;;9.40;3.90;;;;;;;25.66;39.36;98680.69;4485426;32;20084;-84
2022/07/04 02:50:43;;;;;;;9.02;4.00;;;;;;;25.68;39.30;98678.66;4471904;32;20115;-85
2022/07/04 02:53:08;;;;;;;9.70;4.40;;;;;;;25.78;39.17;98680.25;4486500;32;20104;-85
2022/07/04 02:55:33;;;;;;;9.43;3.78;;;;;;;25.78;39.14;98681.09;4472302;32;20096;-84
2022/07/04 02:57:59;;;;;;;9.82;4.20;;;;;;;25.87;39.07;98671.06;4486292;32;20088;-84
2022/07/04 03:00:24;;;;;;;10.15;4.40;;;;;;;25.78;39.29;98682.97;4472076;32;20131;-85
2022/07/04 03:02:50;;;;;;;9.70;3.92;;;;;;;25.86;39.16;98678.34;4486408;32;20392;-85
2022/07/04 03:05:15;;;;;;;9.70;4.22;;;;;;;25.88;39.04;98673.59;4486264;32;20080;-85
2022/07/04 03:07:41;;;;;;;11.27;4.55;;;;;;;25.96;38.86;98683.50;4486327;32;20151;-84
2022/07/04 03:10:07;;;;;;;10.07;4.20;;;;;;;25.86;38.96;98675.63;4471828;32;20418;-85
2022/07/04 03:12:32;;;;;;;10.43;4.50;;;;;;;25.99;38.85;98685.81;4487767;32;20101;-85
2022/07/04 03:14:59;;;;;;;12.07;4.90;;;;;;;25.97;38.77;98682.44;4474078;32;20428;-85
2022/07/04 03:17:25;;;;;;;10.80;4.53;;;;;;;26.01;38.79;98672.94;4488165;32;20096;-85
2022/07/04 03:19:53;;;;;;;9.10;4.20;;;;;;;26.22;38.57;98676.78;4488233;32;20089;-85
2022/07/04 03:22:19;;;;;;;9.55;4.45;;;;;;;26.35;38.39;98678.81;4488149;32;20168;-85
2022/07/04 03:24:44;;;;;;;9.35;4.05;;;;;;;26.09;38.73;98686.34;4473869;32;20122;-85
2022/07/04 03:27:10;;;;;;;10.30;4.60;;;;;;;26.41;38.24;98683.47;4488203;32;20417;-85
2022/07/04 03:29:35;;;;;;;10.20;4.18;;;;;;;26.39;38.32;98680.97;4473775;32;20096;-85
2022/07/04 03:32:01;;;;;;;9.45;4.47;;;;;;;26.55;38.07;98681.78;4488226;32;20471;-85
2022/07/04 03:34:26;;;;;;;34.72;6.78;;;;;;;26.52;38.04;98680.31;4473928;32;20129;-85
2022/07/04 03:36:52;;;;;;;20.70;4.93;;;;;;;26.57;38.05;98682.41;4487990;32;20360;-85
2022/07/04 03:39:17;;;;;;;11.98;4.35;;;;;;;26.61;38.11;98681.03;4488118;32;20371;-85
2022/07/04 03:41:43;;;;;;;10.88;4.55;;;;;;;26.72;37.68;98672.44;4487915;32;20123;-85
2022/07/04 03:44:08;;;;;;;10.32;4.18;;;;;;;26.74;37.77;98666.87;4473729;32;20163;-84
2022/07/04 03:46:34;;;;;;;11.43;4.40;;;;;;;26.78;37.70;98668.97;4488032;32;20380;-85
2022/07/04 03:48:59;;;;;;;9.02;4.20;;;;;;;26.92;37.38;98669.94;4487766;32;20088;-84
2022/07/04 03:51:25;;;;;;;9.60;4.40;;;;;;;27.01;37.33;98662.56;4488024;32;20148;-85
2022/07/04 03:53:50;;;;;;;10.27;4.43;;;;;;;27.07;37.23;98667.22;4487976;32;20101;-84
2022/07/04 03:56:16;;;;;;;8.85;4.32;;;;;;;27.23;37.20;98663.41;4487858;32;20140;-84
2022/07/04 03:58:48;;;;;;;13.48;4.78;;;;;;;27.39;36.95;98659.59;4487951;32;20084;-85
2022/07/04 04:01:15;;;;;;;9.52;4.28;;;;;;;27.33;37.00;98660.37;4474570;32;20126;-85
2022/07/04 04:06:25;;;;;;;9.75;4.25;;;;;;;27.41;37.04;98668.38;4487886;32;20119;-85
2022/07/04 04:08:50;;;;;;;9.05;3.72;;;;;;;27.65;36.66;98669.81;4487895;32;20356;-84
2022/07/04 04:11:16;;;;;;;9.20;4.30;;;;;;;27.82;36.22;98673.91;4473416;32;20144;-84
2022/07/04 04:13:41;;;;;;;8.82;4.10;;;;;;;27.66;36.82;98671.47;4487829;32;20141;-85
2022/07/04 04:16:07;;;;;;;10.57;4.05;;;;;;;27.83;36.49;98672.88;4487760;32;20152;-85
2022/07/04 04:18:32;;;;;;;9.65;4.75;;;;;;;27.91;36.65;98671.91;4487713;32;20084;-85
2022/07/04 04:20:58;;;;;;;9.93;4.22;;;;;;;28.15;36.06;98676.00;4473569;32;20104;-85
2022/07/04 04:23:23;;;;;;;8.13;3.78;;;;;;;28.05;36.21;98675.53;4487328;32;20096;-85
2022/07/04 04:25:48;;;;;;;8.05;3.58;;;;;;;28.21;35.59;98672.50;4487648;32;20111;-85
2022/07/04 04:28:14;;;;;;;8.93;3.70;;;;;;;28.14;35.48;98679.75;4487744;32;20111;-85
2022/07/04 04:30:39;;;;;;;9.38;3.75;;;;;;;28.23;35.58;98683.13;4487546;32;20112;-84
2022/07/04 04:33:05;;;;;;;9.23;3.95;;;;;;;28.44;35.18;98682.19;4487502;32;20089;-84
2022/07/04 04:35:30;;;;;;;9.23;4.40;;;;;;;28.46;35.35;98685.53;4487704;32;20432;-83
2022/07/04 04:37:56;;;;;;;8.95;4.00;;;;;;;28.46;35.04;98685.53;4487595;32;20127;-84
2022/07/04 04:40:21;;;;;;;9.48;3.90;;;;;;;28.52;35.31;98676.63;4487713;32;20173;-84
2022/07/04 04:42:47;;;;;;;9.82;4.55;;;;;;;28.74;34.97;98685.50;4487477;32;20092;-83
2022/07/04 04:45:12;;;;;;;8.93;4.28;;;;;;;28.81;34.44;98674.66;4487491;32;20110;-83
2022/07/04 04:47:38;;;;;;;9.93;4.30;;;;;;;29.00;34.29;98679.28;4487503;32;20080;-84
2022/07/04 04:50:03;;;;;;;8.77;3.87;;;;;;;29.17;33.29;98676.22;4487221;32;20120;-84
2022/07/04 04:52:29;;;;;;;9.23;4.10;;;;;;;29.16;33.98;98667.25;4487558;32;20337;-85
2022/07/04 04:54:54;;;;;;;9.25;4.45;;;;;;;29.28;34.01;98669.34;4487589;32;20080;-85
2022/07/04 04:57:20;;;;;;;13.18;4.95;;;;;;;29.18;34.22;98673.28;4487457;32;20088;-83
2022/07/04 04:59:45;;;;;;;12.93;4.47;;;;;;;29.09;33.60;98671.81;4487551;32;20114;-85
2022/07/04 05:02:10;;;;;;;13.30;5.22;;;;;;;29.34;33.55;98665.78;4487036;32;20123;-80
2022/07/04 05:04:36;;;;;;;12.40;4.55;;;;;;;29.69;32.69;98666.44;4486933;32;20600;-78
2022/07/04 05:07:01;;;;;;;10.27;5.07;;;;;;;29.69;32.72;98671.88;4486893;31;20079;-79
2022/07/04 05:09:27;;;;;;;9.80;4.75;;;;;;;29.80;32.10;98667.69;4486658;32;20108;-81
2022/07/04 05:11:52;;;;;;;10.32;4.80;;;;;;;29.90;32.23;98669.97;4480064;31;20452;-81
2022/07/04 05:14:18;;;;;;;9.32;4.40;;;;;;;29.99;32.09;98677.69;4487972;31;20088;-83
2022/07/04 05:16:43;;;;;;;10.80;4.82;;;;;;;30.03;32.03;98678.09;4486845;31;20116;-81
2022/07/04 05:19:09;;;;;;;10.77;4.87;;;;;;;30.32;31.63;98674.06;4486876;32;20127;-81
2022/07/04 05:21:34;;;;;;;10.32;4.85;;;;;;;30.26;31.90;98682.22;4478841;31;20088;-81
2022/07/04 05:24:00;;;;;;;15.18;5.40;;;;;;;30.07;32.01;98682.06;4486767;32;20233;-81
2022/07/04 05:26:25;;;;;;;11.30;4.75;;;;;;;30.50;31.54;98688.84;4487186;31;20076;-81
2022/07/04 05:28:51;;;;;;;10.30;4.60;;;;;;;30.62;31.47;98683.56;4472949;32;20108;-80
2022/07/04 05:31:16;;;;;;;10.73;4.78;;;;;;;30.82;31.15;98692.47;4487149;32;20385;-80
2022/07/04 05:33:42;;;;;;;9.95;4.80;;;;;;;30.76;30.57;98698.78;4486205;32;20080;-82
2022/07/04 05:36:08;;;;;;;12.00;4.60;;;;;;;30.80;30.37;98699.19;4472872;32;20068;-83
2022/07/04 05:38:33;;;;;;;9.52;4.78;;;;;;;30.79;30.67;98698.37;4472980;32;20153;-82
2022/07/04 05:40:59;;;;;;;9.38;4.53;;;;;;;31.11;30.21;98691.09;4487207;32;20136;-81
2022/07/04 05:43:27;;;;;;;19.92;6.10;;;;;;;31.28;30.49;98693.28;4487216;32;20092;-85
2022/07/04 05:45:53;;;;;;;12.37;5.20;;;;;;;31.46;29.64;98692.56;4486805;32;20072;-82
2022/07/04 05:48:19;;;;;;;9.98;4.70;;;;;;;31.34;29.38;98692.41;4472920;32;20516;-80
2022/07/04 05:50:44;;;;;;;12.27;4.80;;;;;;;31.52;29.18;98697.09;4486979;32;20131;-81
2022/07/04 05:53:10;;;;;;;13.13;4.05;;;;;;;31.71;28.63;98698.00;4487006;32;20631;-81
2022/07/04 05:55:35;;;;;;;12.02;4.75;;;;;;;31.82;28.68;98694.56;4472881;32;20107;-81
2022/07/04 05:58:01;;;;;;;7.97;3.80;;;;;;;31.99;28.03;98702.12;4472890;32;20448;-82
2022/07/04 06:00:26;;;;;;;9.75;4.05;;;;;;;31.94;27.07;98694.66;4472825;32;20510;-81
2022/07/04 06:02:52;;;;;;;10.15;3.95;;;;;;;32.01;27.00;98697.28;4487055;32;20106;-82
2022/07/04 06:05:17;;;;;;;9.13;3.90;;;;;;;31.86;26.97;98694.94;4485809;32;20088;-82
2022/07/04 06:07:43;;;;;;;9.07;3.67;;;;;;;31.89;27.00;98698.06;4486966;32;20081;-82
2022/07/04 06:10:09;;;;;;;7.53;3.30;;;;;;;31.87;26.95;98691.16;4472742;32;20092;-82
2022/07/04 06:12:34;;;;;;;8.23;3.60;;;;;;;32.02;26.82;98690.84;4486948;32;20427;-82
2022/07/04 06:15:00;;;;;;;9.88;3.60;;;;;;;31.99;26.32;98693.97;4472491;32;20130;-82
2022/07/04 06:17:26;;;;;;;7.82;3.40;;;;;;;32.10;26.04;98695.97;4486899;32;20100;-82
2022/07/04 06:19:51;;;;;;;17.05;4.10;;;;;;;32.16;26.12;98700.53;4486882;32;20080;-82
2022/07/04 06:22:17;;;;;;;7.15;3.10;;;;;;;32.23;25.85;98695.00;4486889;32;20084;-82
2022/07/04 06:24:42;;;;;;;8.98;3.25;;;;;;;32.37;25.70;98693.78;4486737;32;20076;-82
2022/07/04 06:27:08;;;;;;;21.23;4.45;;;;;;;32.35;26.16;98689.63;4486789;32;20142;-81
2022/07/04 06:29:33;;;;;;;8.90;3.50;;;;;;;32.42;26.29;98695.84;4472418;32;20140;-82
2022/07/04 06:31:59;;;;;;;9.77;3.47;;;;;;;32.39;25.97;98697.13;4486672;32;20080;-81
2022/07/04 06:37:08;;;;;;;7.15;2.80;;;;;;;32.57;25.45;98693.59;4486865;32;20465;-82
2022/07/04 06:39:33;;;;;;;10.15;3.08;;;;;;;32.70;25.29;98693.44;4486718;32;20084;-82
2022/07/04 06:41:59;;;;;;;7.68;2.60;;;;;;;32.57;25.61;98704.50;4486878;32;20110;-82
2022/07/04 06:44:24;;;;;;;9.77;2.85;;;;;;;32.75;25.35;98700.09;4486911;32;20106;-81
2022/07/04 06:46:50;;;;;;;8.82;2.95;;;;;;;32.62;25.12;98701.91;4486636;32;20387;-82
2022/07/04 06:49:16;;;;;;;7.73;3.03;;;;;;;32.22;25.78;98696.91;4486619;32;20096;-82
2022/07/04 06:51:42;;;;;;;7.70;2.80;;;;;;;32.69;25.54;98688.22;4469628;32;20410;-81
2022/07/04 06:54:07;;;;;;;7.07;2.50;;;;;;;32.45;25.37;98695.38;4470743;32;20100;-82
2022/07/04 06:56:32;;;;;;;6.43;2.78;;;;;;;32.54;25.42;98699.47;4470801;32;20130;-81
2022/07/04 06:58:58;;;;;;;6.85;2.70;;;;;;;32.61;25.45;98692.09;4470836;32;20093;-82
2022/07/04 07:01:23;;;;;;;6.70;2.20;;;;;;;32.55;25.53;98698.44;4470679;32;20101;-81
2022/07/04 07:03:49;;;;;;;7.85;2.58;;;;;;;32.38;25.53;98698.19;4470646;32;20084;-82
2022/07/04 07:06:14;;;;;;;7.43;2.20;;;;;;;32.40;25.40;98697.97;4469555;32;20109;-82
2022/07/04 07:08:40;;;;;;;7.72;2.37;;;;;;;32.62;24.80;98696.47;4469268;32;20085;-82
2022/07/04 07:11:16;;;;;;;4.75;2.00;;;;;;;32.76;24.91;98696.28;4470509;32;20104;-82
2022/07/04 07:13:43;;;;;;;7.78;2.35;;;;;;;32.94;24.43;98690.81;4470420;32;20068;-82
2022/07/04 07:16:09;;;;;;;4.75;2.20;;;;;;;32.94;24.25;98692.72;4469370;32;20135;-82
2022/07/04 07:18:35;;;;;;;34.08;3.62;;;;;;;33.08;23.98;98697.72;4470400;32;20092;-82
2022/07/04 07:21:00;;;;;;;15.25;2.50;;;;;;;32.89;24.53;98701.56;4470471;32;20142;-82
2022/07/04 07:23:26;;;;;;;9.10;2.25;;;;;;;33.13;24.66;98696.22;4469245;32;20101;-82
2022/07/04 07:25:51;;;;;;;8.20;2.35;;;;;;;32.88;24.01;98699.91;4470365;32;20100;-82
2022/07/04 07:28:18;;;;;;;4.60;1.90;;;;;;;32.88;23.88;98694.47;4470317;32;20156;-82
2022/07/04 07:30:43;;;;;;;10.95;2.20;;;;;;;33.13;23.95;98691.63;4469133;32;20089;-82
2022/07/04 07:33:09;;;;;;;6.55;2.97;;;;;;;33.25;23.76;98694.38;4470280;32;20317;-82
2022/07/04 07:35:34;;;;;;;4.50;1.77;;;;;;;33.30;23.56;98689.03;4470217;32;20116;-82
2022/07/04 07:38:00;;;;;;;6.15;2.03;;;;;;;33.26;23.71;98694.16;4470114;32;20146;-82
2022/07/04 07:40:25;;;;;;;7.70;2.00;;;;;;;33.15;23.53;98691.38;4470121;32;20084;-82
2022/07/04 07:42:52;;;;;;;10.70;2.45;;;;;;;33.36;23.53;98699.03;4470099;32;20081;-82
2022/07/04 07:45:17;;;;;;;8.45;1.90;;;;;;;33.35;23.03;98700.09;4470023;32;20089;-82
2022/07/04 07:47:43;;;;;;;6.35;2.17;;;;;;;33.49;22.65;98701.56;4469052;32;20123;-82
2022/07/04 07:50:09;;;;;;;7.53;1.95;;;;;;;33.64;22.84;98694.84;4468412;32;20084;-82
2022/07/04 07:52:34;;;;;;;6.40;1.95;;;;;;;33.58;22.66;98702.03;4470133;32;20102;-82
2022/07/04 07:55:00;;;;;;;6.12;2.22;;;;;;;33.64;22.72;98692.94;4469970;32;20136;-82
2022/07/04 07:57:25;;;;;;;5.35;1.73;;;;;;;33.60;22.32;98696.34;4469347;32;20073;-82
2022/07/04 07:59:51;;;;;;;3.30;1.60;;;;;;;33.66;22.79;98689.97;4471157;32;20107;-82
2022/07/04 08:02:16;;;;;;;6.35;2.17;;;;;;;33.43;21.99;98693.47;4472138;32;20491;-82
2022/07/04 08:04:42;;;;;;;4.62;2.20;;;;;;;33.47;22.57;98697.37;4470913;32;20104;-82
2022/07/04 08:07:09;;;;;;;7.47;2.33;;;;;;;33.81;23.03;98682.13;4472279;32;20115;-82
2022/07/04 08:09:36;;;;;;;5.43;2.15;;;;;;;33.73;22.86;98696.16;4470795;32;20140;-82
2022/07/04 08:12:03;;;;;;;11.68;2.37;;;;;;;33.90;23.21;98682.59;4472124;32;20085;-82
2022/07/04 08:14:28;;;;;;;;;;;;;;;33.77;22.73;98674.66;4471256;32;20108;-82
2022/07/04 08:16:54;;;;;;;8.80;2.08;;;;;;;33.85;22.25;98682.50;4472088;32;19983;-82
2022/07/04 08:19:20;;;;;;;5.40;2.17;;;;;;;33.97;22.20;98679.75;4470960;32;20146;-83
2022/07/04 08:21:46;;;;;;;5.03;2.05;;;;;;;34.10;22.26;98678.69;4471902;32;20121;-82
2022/07/04 08:24:14;;;;;;;5.12;2.05;;;;;;;34.21;22.31;98675.97;4471127;32;20122;-82
2022/07/04 08:26:39;;;;;;;6.87;2.40;;;;;;;33.86;22.95;98682.25;4471209;32;20127;-82
2022/07/04 08:29:08;;;;;;;6.35;2.25;;;;;;;33.83;23.08;98679.16;4471065;32;20348;-82
2022/07/04 08:31:33;;;;;;;14.85;2.55;;;;;;;33.89;22.58;98678.22;4472357;32;20096;-82
2022/07/04 08:33:59;;;;;;;12.02;2.33;;;;;;;33.93;21.87;98679.41;4470710;32;20158;-82
2022/07/04 08:36:24;;;;;;;4.78;1.80;;;;;;;33.87;22.14;98680.34;4471946;32;20104;-82
2022/07/04 08:38:50;;;;;;;5.50;1.95;;;;;;;33.91;22.24;98672.50;4472282;32;20101;-82
2022/07/04 08:41:16;;;;;;;4.70;1.70;;;;;;;33.94;21.55;98678.34;4472255;32;20076;-82
2022/07/04 08:43:42;;;;;;;5.32;1.70;;;;;;;33.46;21.80;98676.63;4471999;32;20398;-82
2022/07/04 08:46:09;;;;;;;7.78;2.17;;;;;;;33.79;21.62;98672.53;4471852;32;20096;-82
2022/07/04 08:48:37;;;;;;;5.62;1.60;;;;;;;33.72;22.30;98680.81;4470674;32;20198;-82
2022/07/04 08:51:15;;;;;;;5.53;1.92;;;;;;;33.68;21.57;98669.53;4470416;32;20089;-82
2022/07/04 08:53:50;;;;;;;4.35;1.50;;;;;;;33.77;21.79;98675.47;4471952;32;20464;-82
2022/07/04 08:59:16;;;;;;;6.72;1.80;;;;;;;33.37;20.54;98686.22;4416970;32;20491;-82
2022/07/04 09:01:42;;;;;;;5.12;1.45;;;;;;;33.28;21.23;98682.97;4395256;32;20106;-81
2022/07/04 09:04:08;;;;;;;4.40;1.50;;;;;;;33.33;20.94;98682.28;4407867;32;20118;-82
2022/07/04 09:06:34;;;;;;;5.30;1.70;;;;;;;33.52;20.84;98688.50;4407779;32;20114;-81
2022/07/04 09:09:00;;;;;;;4.70;1.60;;;;;;;33.72;20.85;98674.53;4408001;32;20124;-82
2022/07/04 09:11:25;;;;;;;4.45;1.60;;;;;;;33.78;21.00;98671.66;4395423;32;20112;-81
2022/07/04 09:13:51;;;;;;;7.87;1.90;;;;;;;33.42;20.81;98678.16;4407944;32;20121;-82
2022/07/04 09:16:16;;;;;;;12.48;1.98;;;;;;;33.53;20.83;98671.03;4407797;32;20113;-81
2022/07/04 09:18:42;;;;;;;3.47;1.75;;;;;;;33.76;21.08;98678.44;4407806;32;20176;-82
2022/07/04 09:21:09;;;;;;;7.35;1.95;;;;;;;33.92;20.84;98672.28;4407673;32;20255;-82
2022/07/04 09:23:43;;;;;;;5.55;1.80;;;;;;;33.80;20.51;98666.78;4407774;32;20701;-82
2022/07/04 09:26:10;;;;;;;5.28;1.90;;;;;;;33.64;20.56;98670.25;4407980;32;20136;-81
2022/07/04 09:28:36;;;;;;;;;;;;;;;33.57;21.13;98674.94;4408337;32;20090;-81
2022/07/04 09:31:02;;;;;;;4.10;1.90;;;;;;;33.73;20.66;98673.44;4395269;32;20024;-82
2022/07/04 09:33:53;;;;;;;20.73;2.65;;;;;;;33.64;21.18;98678.44;4445120;32;20227;-82
2022/07/04 09:36:23;;;;;;;7.12;2.03;;;;;;;33.96;21.43;98667.16;4471798;32;20349;-82
2022/07/04 09:39:20;;;;;;;6.68;2.35;;;;;;;33.96;22.15;98673.47;4471931;32;20243;-82
2022/07/04 09:41:59;;;;;;;6.45;2.20;;;;;;;33.99;22.36;98663.94;4458921;32;20109;-82
2022/07/04 09:44:50;;;;;;;8.50;2.33;;;;;;;34.04;22.37;98662.16;4471424;32;20561;-82
2022/07/04 09:47:22;;;;;;;8.13;2.40;;;;;;;34.11;22.68;98663.94;4464396;32;20092;-82
2022/07/04 09:50:06;;;;;;;7.18;2.30;;;;;;;34.25;21.85;98668.13;4474029;32;20107;-82
2022/07/04 09:52:43;;;;;;;6.40;2.40;;;;;;;34.25;21.90;98655.28;4487052;32;20060;-82
2022/07/04 09:55:08;;;;;;;6.37;2.20;;;;;;;34.48;21.46;98656.28;4487229;32;20448;-82
2022/07/04 09:57:34;;;;;;;6.30;2.20;;;;;;;34.39;20.85;98649.53;4487124;32;20088;-82
2022/07/04 10:00:18;;;;;;;5.85;2.20;;;;;;;34.35;21.25;98656.56;4487036;32;20226;-81
2022/07/04 10:02:44;;;;;;;5.95;2.30;;;;;;;34.37;20.54;98657.97;4487089;32;20084;-82
2022/07/04 10:05:10;;;;;;;9.30;2.20;;;;;;;34.27;20.67;98657.75;4472767;32;20122;-81
2022/07/04 10:07:43;;;;;;;4.93;1.90;;;;;;;33.94;20.72;98652.87;4487335;32;20084;-82
2022/07/04 10:10:30;;;;;;;5.43;2.20;;;;;;;33.88;21.22;98649.22;4473405;32;20106;-82
2022/07/04 10:12:58;;;;;;;5.62;2.28;;;;;;;34.16;21.24;98655.88;4487054;32;20443;-81
2022/07/04 10:15:24;;;;;;;6.18;2.05;;;;;;;34.21;21.59;98656.81;4472703;32;20092;-82
2022/07/04 10:17:49;;;;;;;3.80;2.03;;;;;;;34.41;21.30;98641.91;4486969;32;20135;-82
2022/07/04 10:20:15;;;;;;;5.55;1.83;;;;;;;34.22;21.07;98642.06;4471987;32;20084;-82
2022/07/04 10:22:41;;;;;;;5.57;1.80;;;;;;;34.30;20.61;98634.56;4486843;32;20092;-81
2022/07/04 10:25:07;;;;;;;3.83;1.77;;;;;;;34.38;20.15;98632.25;4472651;32;20097;-82
2022/07/04 10:27:34;;;;;;;3.85;1.55;;;;;;;34.55;18.39;98628.78;4472671;32;20100;-82
2022/07/04 10:30:00;;;;;;;4.60;1.60;;;;;;;34.39;19.22;98633.12;4472464;32;20106;-82
2022/07/04 10:32:27;;;;;;;3.97;1.80;;;;;;;34.40;19.48;98618.34;4459728;32;20507;-81
2022/07/04 10:34:52;;;;;;;4.70;1.80;;;;;;;34.34;19.93;98620.16;4472738;32;20128;-82
2022/07/04 10:37:18;;;;;;;5.78;1.92;;;;;;;34.27;20.34;98614.84;4486991;32;20110;-82
2022/07/04 10:39:43;;;;;;;5.50;1.55;;;;;;;34.37;20.32;98621.59;4472719;32;20103;-82
2022/07/04 10:42:09;;;;;;;6.15;1.95;;;;;;;34.30;20.15;98610.78;4472719;32;20085;-82
2022/07/04 10:44:37;;;;;;;7.05;1.70;;;;;;;34.58;20.12;98622.84;4472591;32;20449;-82
2022/07/04 10:47:04;;;;;;;7.72;1.67;;;;;;;34.43;20.07;98613.22;4486982;32;20096;-81
2022/07/04 10:49:29;;;;;;;4.97;1.70;;;;;;;34.31;19.60;98608.88;4486637;32;20104;-82
2022/07/04 10:51:56;;;;;;;23.20;3.30;;;;;;;34.35;20.14;98610.88;4472524;32;20416;-82
2022/07/04 10:54:31;;;;;;;8.88;1.90;;;;;;;34.59;20.34;98608.88;4472303;32;20096;-82
2022/07/04 10:57:13;;;;;;;4.37;1.70;;;;;;;34.63;20.28;98606.50;4486657;32;20081;-81
2022/07/04 10:59:39;;;;;;;4.60;1.65;;;;;;;34.74;19.96;98594.69;4486430;32;20102;-82
2022/07/04 11:02:08;;;;;;;8.10;2.25;;;;;;;34.80;19.90;98590.97;4486476;32;20104;-82
2022/07/04 11:04:49;;;;;;;3.47;1.70;;;;;;;34.88;20.01;98587.00;4486329;32;20088;-82
2022/07/04 11:07:15;;;;;;;4.97;1.67;;;;;;;34.84;19.18;98594.06;4486335;32;20088;-82
2022/07/04 11:09:42;;;;;;;17.45;2.37;;;;;;;34.53;18.90;98607.13;4486224;32;20080;-82
2022/07/04 11:12:08;;;;;;;7.57;1.85;;;;;;;34.79;18.15;98593.94;4486183;32;20080;-82
2022/07/04 11:14:47;;;;;;;3.67;1.50;;;;;;;34.79;18.49;98596.69;4486272;32;20135;-81
2022/07/04 11:17:36;;;;;;;3.20;1.37;;;;;;;34.61;18.21;98601.25;4486221;32;20092;-81
2022/07/04 11:20:03;;;;;;;18.70;2.10;;;;;;;34.69;18.37;98583.66;4486128;32;20076;-82
2022/07/04 11:22:29;;;;;;;;;;;;;;;34.68;18.02;98581.19;4486555;32;20141;-82
2022/07/04 11:24:54;;;;;;;5.05;1.60;;;;;;;34.76;17.90;98583.50;4486362;32;19983;-82
2022/07/04 11:27:23;;;;;;;8.38;1.85;;;;;;;34.74;18.17;98577.47;4486247;32;20092;-81
2022/07/04 11:29:53;;;;;;;3.25;1.67;;;;;;;34.63;18.38;98577.22;4486283;32;20110;-82
2022/07/04 11:32:19;;;;;;;8.68;2.05;;;;;;;34.65;18.13;98574.25;4486752;32;20076;-81
2022/07/04 11:34:46;;;;;;;20.10;2.37;;;;;;;34.61;18.49;98564.88;4488408;32;20140;-81
2022/07/04 11:37:11;;;;;;;5.53;1.75;;;;;;;34.85;18.83;98560.97;4488258;32;20057;-82
2022/07/04 11:39:37;;;;;;;5.35;1.60;;;;;;;34.88;18.58;98559.63;4473925;32;20110;-82
2022/07/04 11:45:02;;;;;;;7.28;1.90;;;;;;;34.84;18.36;98553.00;4488058;32;20498;-82
2022/07/04 11:47:39;;;;;;;5.97;1.80;;;;;;;34.97;18.30;98547.19;4488135;32;20092;-82